createdAt,value
2018-08-04T00:00:17.908Z,0
2018-08-04T00:01:18.577Z,0
2018-08-04T00:02:19.248Z,0
2018-08-04T00:03:19.910Z,0
2018-08-04T00:04:20.623Z,0
2018-08-04T00:05:21.292Z,0
2018-08-04T00:06:21.961Z,0
2018-08-04T00:07:22.636Z,0
2018-08-04T00:08:23.350Z,0
2018-08-04T00:09:24.018Z,0
2018-08-04T00:10:24.686Z,0
2018-08-04T00:11:25.396Z,0
2018-08-04T00:12:26.064Z,0
2018-08-04T00:13:26.733Z,0
2018-08-04T00:14:27.401Z,0
2018-08-04T00:15:28.118Z,0
2018-08-04T00:16:28.838Z,0
2018-08-04T00:17:29.505Z,0
2018-08-04T00:18:30.176Z,0
2018-08-04T00:19:30.892Z,0
2018-08-04T00:20:31.561Z,0
2018-08-04T00:21:32.233Z,0
2018-08-04T00:22:32.899Z,0
2018-08-04T00:23:33.611Z,0
2018-08-04T00:24:34.285Z,0
2018-08-04T00:25:34.990Z,0
2018-08-04T00:26:35.659Z,0
2018-08-04T00:27:36.327Z,0
2018-08-04T00:28:37.027Z,0
2018-08-04T00:29:37.711Z,0
2018-08-04T00:30:38.475Z,0
2018-08-04T00:31:39.193Z,0
2018-08-04T00:32:39.906Z,0
2018-08-04T00:33:40.572Z,0
2018-08-04T00:34:41.242Z,0
2018-08-04T00:35:41.910Z,0
2018-08-04T00:36:42.582Z,0
2018-08-04T00:38:58.754Z,0
2018-08-04T00:39:59.422Z,0
2018-08-04T00:41:00.091Z,0
2018-08-04T00:42:00.760Z,0
2018-08-04T00:43:01.427Z,0
2018-08-04T00:44:02.096Z,0
2018-08-04T00:45:02.815Z,0
2018-08-04T00:46:03.482Z,0
2018-08-04T00:47:04.151Z,0
2018-08-04T00:48:04.819Z,0
2018-08-04T00:49:05.504Z,0
2018-08-04T00:50:06.161Z,0
2018-08-04T00:51:06.829Z,0
2018-08-04T00:52:07.496Z,0
2018-08-04T00:53:08.163Z,0
2018-08-04T00:54:08.830Z,0
2018-08-04T00:55:09.531Z,0
2018-08-04T00:56:10.216Z,0
2018-08-04T00:57:10.934Z,0
2018-08-04T00:58:11.605Z,0
2018-08-04T00:59:12.268Z,0
2018-08-04T01:00:12.937Z,0
2018-08-04T01:01:13.649Z,0
2018-08-04T01:02:14.317Z,0
2018-08-04T01:03:14.984Z,0
2018-08-04T01:04:15.651Z,0
2018-08-04T01:05:16.321Z,0
2018-08-04T01:06:16.990Z,0
2018-08-04T01:07:17.660Z,0
2018-08-04T01:08:18.329Z,0
2018-08-04T01:09:19.008Z,0
2018-08-04T01:10:19.690Z,0
2018-08-04T01:11:20.419Z,0
2018-08-04T01:12:21.149Z,0
2018-08-04T01:13:21.830Z,0
2018-08-04T01:14:22.511Z,0
2018-08-04T01:15:23.188Z,0
2018-08-04T01:16:23.869Z,0
2018-08-04T01:17:24.592Z,0
2018-08-04T01:18:25.288Z,0
2018-08-04T01:19:25.949Z,0
2018-08-04T01:20:26.628Z,0
2018-08-04T01:21:27.307Z,0
2018-08-04T01:22:28.037Z,0
2018-08-04T01:23:28.762Z,0
2018-08-04T01:24:29.442Z,0
2018-08-04T01:25:30.119Z,0
2018-08-04T01:26:30.799Z,0
2018-08-04T01:27:31.527Z,0
2018-08-04T01:28:32.206Z,0
2018-08-04T01:29:32.934Z,0
2018-08-04T01:30:33.615Z,0
2018-08-04T01:31:34.290Z,0
2018-08-04T01:32:34.969Z,0
2018-08-04T01:33:35.647Z,0
2018-08-04T01:34:36.328Z,0
2018-08-04T01:35:37.004Z,0
2018-08-04T01:36:37.684Z,0
2018-08-04T01:37:38.363Z,0
2018-08-04T01:38:39.040Z,0
2018-08-04T01:39:39.721Z,0
2018-08-04T01:40:40.397Z,0
2018-08-04T01:41:41.076Z,0
2018-08-04T01:42:41.753Z,0
2018-08-04T01:43:42.432Z,0
2018-08-04T01:44:43.110Z,0
2018-08-04T01:45:43.789Z,0
2018-08-04T01:46:44.467Z,0
2018-08-04T01:47:45.144Z,0
2018-08-04T01:48:45.821Z,0
2018-08-04T01:49:46.500Z,0
2018-08-04T01:50:47.178Z,0
2018-08-04T01:51:47.906Z,0
2018-08-04T01:52:48.585Z,0
2018-08-04T01:53:49.264Z,0
2018-08-04T01:54:49.940Z,0
2018-08-04T01:55:50.619Z,0
2018-08-04T01:56:51.297Z,0
2018-08-04T01:57:51.975Z,0
2018-08-04T01:58:52.704Z,0
2018-08-04T02:00:55.039Z,0
2018-08-04T02:01:55.705Z,0
2018-08-04T02:02:56.415Z,0
2018-08-04T02:03:57.081Z,0
2018-08-04T02:04:57.746Z,0
2018-08-04T02:05:58.463Z,0
2018-08-04T02:06:59.131Z,0
2018-08-04T02:07:59.798Z,0
2018-08-04T02:09:00.511Z,0
2018-08-04T02:10:01.181Z,0
2018-08-04T02:11:01.847Z,0
2018-08-04T02:12:02.572Z,0
2018-08-04T02:13:03.250Z,0
2018-08-04T02:14:03.928Z,0
2018-08-04T02:16:06.265Z,0
2018-08-04T02:17:06.930Z,0
2018-08-04T02:18:07.610Z,0
2018-08-04T02:19:08.288Z,0
2018-08-04T02:20:08.968Z,0
2018-08-04T02:21:09.648Z,0
2018-08-04T02:22:10.330Z,0
2018-08-04T02:23:11.010Z,0
2018-08-04T02:24:11.734Z,0
2018-08-04T02:25:12.409Z,0
2018-08-04T02:26:13.089Z,0
2018-08-04T02:27:13.817Z,0
2018-08-04T02:28:14.494Z,0
2018-08-04T02:29:15.177Z,0
2018-08-04T02:30:15.854Z,0
2018-08-04T02:31:16.535Z,0
2018-08-04T02:32:17.209Z,0
2018-08-04T02:33:17.887Z,0
2018-08-04T02:34:18.567Z,0
2018-08-04T02:35:19.244Z,0
2018-08-04T02:36:19.921Z,0
2018-08-04T02:37:20.601Z,0
2018-08-04T02:38:36.422Z,0
2018-08-04T02:40:56.487Z,0
2018-08-04T02:42:58.833Z,0
2018-08-04T02:46:59.585Z,0
2018-08-04T02:48:22.959Z,0
2018-08-04T02:50:53.085Z,0
2018-08-04T02:51:53.953Z,0
2018-08-04T02:52:54.619Z,0
2018-08-04T02:54:07.933Z,0
2018-08-04T02:55:08.601Z,0
2018-08-04T02:56:09.268Z,0
2018-08-04T02:57:09.933Z,0
2018-08-04T02:58:10.600Z,0
2018-08-04T02:59:11.269Z,0
2018-08-04T03:00:11.936Z,0
2018-08-04T03:01:12.645Z,0
2018-08-04T03:02:13.310Z,0
2018-08-04T03:03:13.977Z,0
2018-08-04T03:04:14.690Z,0
2018-08-04T03:05:15.398Z,0
2018-08-04T03:06:16.066Z,0
2018-08-04T03:08:18.407Z,0
2018-08-04T03:09:34.471Z,0
2018-08-04T03:10:35.138Z,4
2018-08-04T03:11:35.805Z,4
2018-08-04T03:12:36.470Z,0
2018-08-04T03:13:37.137Z,4
2018-08-04T03:14:37.806Z,4
2018-08-04T03:15:51.121Z,4
2018-08-04T03:18:06.094Z,4
2018-08-04T03:19:07.008Z,8
2018-08-04T03:20:07.687Z,8
2018-08-04T03:21:08.363Z,8
2018-08-04T03:22:09.044Z,8
2018-08-04T03:23:09.722Z,12
2018-08-04T03:24:10.403Z,12
2018-08-04T03:25:11.083Z,16
2018-08-04T03:26:11.762Z,20
2018-08-04T03:27:12.439Z,20
2018-08-04T03:28:13.120Z,24
2018-08-04T03:29:13.798Z,28
2018-08-04T03:30:14.477Z,28
2018-08-04T03:31:15.157Z,32
2018-08-04T03:32:15.836Z,40
2018-08-04T03:33:16.519Z,44
2018-08-04T03:34:17.197Z,48
2018-08-04T03:35:17.879Z,56
2018-08-04T03:36:18.554Z,60
2018-08-04T03:37:19.234Z,68
2018-08-04T03:38:19.912Z,76
2018-08-04T03:39:20.596Z,84
2018-08-04T03:40:21.273Z,92
2018-08-04T03:41:21.954Z,100
2018-08-04T03:42:22.675Z,108
2018-08-04T03:43:23.358Z,120
2018-08-04T03:44:24.038Z,128
2018-08-04T03:47:19.421Z,164
2018-08-04T03:48:20.103Z,180
2018-08-04T03:49:20.783Z,192
2018-08-04T03:50:21.463Z,208
2018-08-04T03:51:22.147Z,220
2018-08-04T03:52:22.868Z,236
2018-08-04T03:53:23.548Z,256
2018-08-04T03:54:24.231Z,276
2018-08-04T03:55:24.908Z,292
2018-08-04T03:56:25.589Z,316
2018-08-04T03:57:26.271Z,332
2018-08-04T03:58:26.952Z,356
2018-08-04T03:59:27.632Z,380
2018-08-04T04:00:28.314Z,400
2018-08-04T04:01:28.998Z,424
2018-08-04T04:02:29.677Z,448
2018-08-04T04:03:30.357Z,476
2018-08-04T04:04:31.038Z,500
2018-08-04T04:05:31.718Z,524
2018-08-04T04:06:32.445Z,552
2018-08-04T04:07:33.082Z,584
2018-08-04T04:08:33.760Z,612
2018-08-04T04:09:34.442Z,644
2018-08-04T04:10:35.123Z,672
2018-08-04T04:11:35.848Z,704
2018-08-04T04:12:36.528Z,736
2018-08-04T04:13:37.210Z,772
2018-08-04T04:14:37.892Z,808
2018-08-04T04:15:38.572Z,844
2018-08-04T04:16:39.253Z,876
2018-08-04T04:17:39.934Z,912
2018-08-04T04:18:40.615Z,944
2018-08-04T04:19:41.296Z,984
2018-08-04T04:20:41.977Z,1016
2018-08-04T04:21:42.661Z,1048
2018-08-04T04:22:43.385Z,1084
2018-08-04T04:23:44.068Z,1116
2018-08-04T04:24:44.751Z,1152
2018-08-04T04:25:45.432Z,1188
2018-08-04T04:26:46.117Z,1228
2018-08-04T04:27:46.800Z,1268
2018-08-04T04:28:47.481Z,1312
2018-08-04T04:29:48.163Z,1348
2018-08-04T04:30:48.847Z,1392
2018-08-04T04:31:49.570Z,1436
2018-08-04T04:32:50.253Z,1484
2018-08-04T04:33:50.934Z,1524
2018-08-04T04:34:51.616Z,1572
2018-08-04T04:35:52.298Z,1612
2018-08-04T04:36:53.005Z,1660
2018-08-04T04:37:53.707Z,1704
2018-08-04T04:38:54.388Z,1748
2018-08-04T04:39:55.071Z,1792
2018-08-04T04:40:55.754Z,1836
2018-08-04T04:41:56.437Z,1880
2018-08-04T04:42:57.119Z,1920
2018-08-04T04:43:57.807Z,1964
2018-08-04T04:44:58.483Z,2004
2018-08-04T04:45:59.168Z,2048
2018-08-04T04:46:59.849Z,2096
2018-08-04T04:48:00.531Z,2140
2018-08-04T04:49:01.215Z,2184
2018-08-04T04:50:01.898Z,2224
2018-08-04T04:51:02.623Z,2268
2018-08-04T04:52:03.307Z,2312
2018-08-04T04:53:03.989Z,2360
2018-08-04T04:54:04.671Z,2400
2018-08-04T04:55:05.355Z,2444
2018-08-04T04:56:06.038Z,2488
2018-08-04T04:57:06.719Z,2536
2018-08-04T04:58:07.401Z,2580
2018-08-04T04:59:08.084Z,2624
2018-08-04T05:00:08.766Z,2668
2018-08-04T05:01:09.451Z,2716
2018-08-04T05:02:10.179Z,2764
2018-08-04T05:03:10.903Z,2808
2018-08-04T05:04:11.584Z,2860
2018-08-04T05:05:12.267Z,2908
2018-08-04T05:06:12.950Z,2952
2018-08-04T05:07:13.633Z,2996
2018-08-04T05:08:14.315Z,3052
2018-08-04T05:09:15.000Z,3096
2018-08-04T05:10:15.685Z,3140
2018-08-04T05:11:16.363Z,3192
2018-08-04T05:12:17.054Z,3228
2018-08-04T05:13:17.735Z,3272
2018-08-04T05:14:18.410Z,3320
2018-08-04T05:15:19.092Z,3364
2018-08-04T05:16:19.774Z,3404
2018-08-04T05:17:20.459Z,3444
2018-08-04T05:18:21.139Z,3484
2018-08-04T05:19:21.822Z,3520
2018-08-04T05:20:22.505Z,3556
2018-08-04T05:21:23.232Z,3588
2018-08-04T05:22:23.916Z,3624
2018-08-04T05:23:24.600Z,3656
2018-08-04T05:24:25.318Z,3684
2018-08-04T05:25:26.010Z,3716
2018-08-04T05:26:26.738Z,3748
2018-08-04T05:27:27.448Z,3780
2018-08-04T05:28:28.148Z,3816
2018-08-04T05:29:28.834Z,3856
2018-08-04T05:30:29.514Z,3892
2018-08-04T05:31:30.199Z,3928
2018-08-04T05:32:30.882Z,3964
2018-08-04T05:33:31.565Z,4004
2018-08-04T05:34:32.249Z,4040
2018-08-04T05:35:32.933Z,4080
2018-08-04T05:36:33.617Z,4116
2018-08-04T05:37:34.302Z,4140
2018-08-04T05:38:34.985Z,4172
2018-08-04T05:39:35.671Z,4192
2018-08-04T05:40:36.354Z,4216
2018-08-04T05:41:37.037Z,4240
2018-08-04T05:42:37.724Z,4264
2018-08-04T05:43:38.475Z,4292
2018-08-04T05:44:39.138Z,4320
2018-08-04T05:45:39.819Z,4356
2018-08-04T05:46:40.502Z,4388
2018-08-04T05:47:41.187Z,4428
2018-08-04T05:48:41.869Z,4468
2018-08-04T05:49:42.553Z,4512
2018-08-04T05:50:43.237Z,4560
2018-08-04T05:51:43.919Z,4612
2018-08-04T05:52:44.636Z,4664
2018-08-04T05:53:45.289Z,4708
2018-08-04T05:54:45.973Z,4748
2018-08-04T05:55:46.659Z,4792
2018-08-04T05:56:47.344Z,4828
2018-08-04T05:57:48.029Z,4864
2018-08-04T05:58:48.711Z,4904
2018-08-04T05:59:49.440Z,4948
2018-08-04T06:00:50.169Z,4992
2018-08-04T06:01:50.853Z,5048
2018-08-04T06:02:51.537Z,5100
2018-08-04T06:03:52.221Z,5148
2018-08-04T06:04:52.904Z,5200
2018-08-04T06:05:53.590Z,5240
2018-08-04T06:06:54.275Z,5288
2018-08-04T06:07:54.959Z,5336
2018-08-04T06:08:55.646Z,5372
2018-08-04T06:09:56.331Z,5400
2018-08-04T06:10:57.014Z,5440
2018-08-04T06:11:57.701Z,5480
2018-08-04T06:12:58.429Z,5520
2018-08-04T06:13:59.111Z,5568
2018-08-04T06:14:59.796Z,5616
2018-08-04T06:16:00.481Z,5664
2018-08-04T06:17:01.165Z,5712
2018-08-04T06:18:01.849Z,5760
2018-08-04T06:19:02.532Z,5808
2018-08-04T06:20:03.217Z,5848
2018-08-04T06:21:03.902Z,5896
2018-08-04T06:22:04.592Z,5956
2018-08-04T06:23:05.270Z,6008
2018-08-04T06:24:05.955Z,6080
2018-08-04T06:25:06.684Z,6164
2018-08-04T06:26:07.367Z,6276
2018-08-04T06:27:08.056Z,6412
2018-08-04T06:28:08.776Z,6568
2018-08-04T06:29:09.426Z,6764
2018-08-04T06:30:10.107Z,10936
2018-08-04T06:31:10.794Z,24256
2018-08-04T06:32:11.479Z,35552
2018-08-04T06:33:12.163Z,41376
2018-08-04T06:34:12.849Z,47744
2018-08-04T06:35:13.535Z,55968
2018-08-04T06:36:14.222Z,60896
2018-08-04T06:37:14.906Z,61920
2018-08-04T06:38:15.594Z,63808
2018-08-04T06:39:16.282Z,67200
2018-08-04T06:40:16.967Z,61984
2018-08-04T06:41:17.656Z,59328
2018-08-04T06:42:18.344Z,61120
2018-08-04T06:43:19.031Z,62464
2018-08-04T06:44:19.763Z,63648
2018-08-04T06:45:20.451Z,64224
2018-08-04T06:46:21.141Z,60832
2018-08-04T06:47:21.830Z,61632
2018-08-04T06:48:22.519Z,62784
2018-08-04T06:49:23.211Z,64160
2018-08-04T06:50:23.900Z,64128
2018-08-04T06:51:24.590Z,63680
2018-08-04T06:52:25.282Z,63424
2018-08-04T06:53:25.973Z,64064
2018-08-04T06:54:26.666Z,63264
2018-08-04T06:55:27.355Z,59712
2018-08-04T06:56:28.044Z,58048
2018-08-04T06:57:28.741Z,57792
2018-08-04T06:58:29.428Z,64960
2018-08-04T06:59:30.117Z,66624
2018-08-04T07:00:30.809Z,61984
2018-08-04T07:01:31.489Z,62912
2018-08-04T07:02:32.168Z,64256
2018-08-04T07:03:32.891Z,66752
2018-08-04T07:04:33.570Z,61376
2018-08-04T07:05:34.250Z,58496
2018-08-04T07:06:34.929Z,58848
2018-08-04T07:07:35.608Z,61568
2018-08-04T07:08:36.288Z,63904
2018-08-04T07:09:36.966Z,65216
2018-08-04T07:10:37.647Z,65504
2018-08-04T07:11:38.329Z,61440
2018-08-04T07:12:39.008Z,59968
2018-08-04T07:13:39.692Z,62304
2018-08-04T07:14:40.367Z,62848
2018-08-04T07:15:41.050Z,62848
2018-08-04T07:16:41.728Z,61024
2018-08-04T07:17:42.407Z,62208
2018-08-04T07:18:43.087Z,64832
2018-08-04T07:19:43.766Z,64608
2018-08-04T07:20:44.496Z,63840
2018-08-04T07:21:45.240Z,63136
2018-08-04T07:22:45.988Z,61472
2018-08-04T07:23:46.626Z,62400
2018-08-04T07:24:47.307Z,65024
2018-08-04T07:25:47.984Z,63872
2018-08-04T07:26:48.664Z,60928
2018-08-04T07:27:49.346Z,61536
2018-08-04T07:28:50.083Z,64960
2018-08-04T07:29:50.704Z,65472
2018-08-04T07:30:51.385Z,60608
2018-08-04T07:31:52.066Z,62528
2018-08-04T07:32:52.745Z,65504
2018-08-04T07:33:53.428Z,63232
2018-08-04T07:34:54.105Z,61824
2018-08-04T07:35:54.785Z,59136
2018-08-04T07:36:55.465Z,60928
2018-08-04T07:37:56.147Z,61792
2018-08-04T07:38:56.828Z,60864
2018-08-04T07:39:57.508Z,59840
2018-08-04T07:40:58.201Z,58880
2018-08-04T07:41:58.867Z,58464
2018-08-04T07:42:59.548Z,56832
2018-08-04T07:44:00.228Z,57600
2018-08-04T07:45:00.945Z,58432
2018-08-04T07:46:01.635Z,60512
2018-08-04T07:47:02.315Z,56672
2018-08-04T07:48:02.996Z,55200
2018-08-04T07:49:03.677Z,56800
2018-08-04T07:50:04.355Z,54048
2018-08-04T07:51:05.034Z,56960
2018-08-04T07:52:05.713Z,57504
2018-08-04T07:53:06.395Z,56576
2018-08-04T07:54:07.078Z,54784
2018-08-04T07:55:07.758Z,54112
2018-08-04T07:56:08.437Z,54368
2018-08-04T07:57:09.117Z,50240
2018-08-04T07:58:09.798Z,46784
2018-08-04T07:59:10.517Z,43360
2018-08-04T08:00:11.205Z,25024
2018-08-04T08:01:11.927Z,13540
2018-08-04T08:02:12.607Z,12452
2018-08-04T08:03:13.287Z,12016
2018-08-04T08:04:13.966Z,11736
2018-08-04T08:05:14.647Z,11476
2018-08-04T08:06:15.326Z,11208
2018-08-04T08:07:16.007Z,10952
2018-08-04T08:08:16.688Z,10740
2018-08-04T08:09:17.370Z,10536
2018-08-04T08:10:18.094Z,10372
2018-08-04T08:11:18.781Z,10220
2018-08-04T08:12:19.409Z,10084
2018-08-04T08:13:20.088Z,9936
2018-08-04T08:14:20.815Z,9804
2018-08-04T08:15:21.495Z,9700
2018-08-04T08:16:22.175Z,9608
2018-08-04T08:17:22.855Z,9504
2018-08-04T08:18:23.534Z,9388
2018-08-04T08:19:24.241Z,9276
2018-08-04T08:20:24.893Z,9196
2018-08-04T08:21:25.617Z,9128
2018-08-04T08:22:26.297Z,9060
2018-08-04T08:23:26.984Z,9016
2018-08-04T08:24:27.659Z,8968
2018-08-04T08:25:28.386Z,8928
2018-08-04T08:26:29.066Z,8892
2018-08-04T08:27:29.744Z,8860
2018-08-04T08:28:30.423Z,8840
2018-08-04T08:29:31.103Z,8816
2018-08-04T08:30:31.780Z,8764
2018-08-04T08:31:32.488Z,8720
2018-08-04T08:32:33.156Z,8680
2018-08-04T08:33:33.817Z,8628
2018-08-04T08:34:34.518Z,8588
2018-08-04T08:35:35.222Z,8548
2018-08-04T08:36:35.905Z,8508
2018-08-04T08:37:36.581Z,8464
2018-08-04T08:38:37.261Z,8428
2018-08-04T08:39:37.938Z,8400
2018-08-04T08:40:38.640Z,8384
2018-08-04T08:41:39.340Z,8352
2018-08-04T08:42:40.019Z,8328
2018-08-04T08:43:40.698Z,8316
2018-08-04T08:44:41.378Z,8292
2018-08-04T08:45:42.143Z,8284
2018-08-04T08:46:42.832Z,8280
2018-08-04T08:47:43.512Z,8284
2018-08-04T08:48:44.215Z,8268
2018-08-04T08:49:44.914Z,8236
2018-08-04T08:50:45.595Z,8212
2018-08-04T08:51:46.275Z,8180
2018-08-04T08:52:46.955Z,8108
2018-08-04T08:53:47.690Z,8048
2018-08-04T08:54:48.314Z,7992
2018-08-04T08:55:48.994Z,7944
2018-08-04T08:56:49.673Z,7908
2018-08-04T08:57:50.351Z,7872
2018-08-04T08:58:51.030Z,7828
2018-08-04T08:59:51.709Z,7796
2018-08-04T09:00:52.390Z,7760
2018-08-04T09:01:53.070Z,7720
2018-08-04T09:02:53.748Z,7672
2018-08-04T09:03:54.433Z,7620
2018-08-04T09:04:55.150Z,7572
2018-08-04T09:05:55.832Z,7520
2018-08-04T09:06:56.513Z,7472
2018-08-04T09:07:57.192Z,7428
2018-08-04T09:08:57.875Z,7392
2018-08-04T09:09:58.553Z,7360
2018-08-04T09:10:59.231Z,7336
2018-08-04T09:11:59.910Z,7312
2018-08-04T09:13:00.589Z,7284
2018-08-04T09:14:01.276Z,7256
2018-08-04T09:15:02.038Z,7232
2018-08-04T09:16:02.721Z,7196
2018-08-04T09:17:03.401Z,7152
2018-08-04T09:18:04.118Z,7116
2018-08-04T09:19:04.759Z,7072
2018-08-04T09:20:05.482Z,7028
2018-08-04T09:21:06.163Z,6984
2018-08-04T09:22:06.845Z,6944
2018-08-04T09:23:07.558Z,6896
2018-08-04T09:24:08.200Z,6844
2018-08-04T09:25:08.879Z,6788
2018-08-04T09:26:09.559Z,6736
2018-08-04T09:27:10.239Z,6696
2018-08-04T09:28:10.924Z,6664
2018-08-04T09:29:11.648Z,6628
2018-08-04T09:30:12.327Z,6596
2018-08-04T09:31:13.009Z,6564
2018-08-04T09:32:13.732Z,6532
2018-08-04T09:33:14.455Z,6516
2018-08-04T09:34:15.133Z,6488
2018-08-04T09:35:15.816Z,6476
2018-08-04T09:36:16.538Z,6456
2018-08-04T09:37:17.217Z,6444
2018-08-04T09:38:17.902Z,6444
2018-08-04T09:39:18.620Z,6452
2018-08-04T09:40:19.300Z,6464
2018-08-04T09:41:19.981Z,6468
2018-08-04T09:42:20.702Z,6488
2018-08-04T09:43:21.382Z,6508
2018-08-04T09:44:22.062Z,6512
2018-08-04T09:45:22.743Z,6504
2018-08-04T09:46:23.424Z,6512
2018-08-04T09:47:24.104Z,6524
2018-08-04T09:48:24.783Z,6528
2018-08-04T09:49:25.463Z,6528
2018-08-04T09:50:26.142Z,6520
2018-08-04T09:51:26.822Z,6516
2018-08-04T09:52:27.548Z,6512
2018-08-04T09:53:28.216Z,6504
2018-08-04T09:54:28.896Z,6480
2018-08-04T09:55:29.620Z,6456
2018-08-04T09:56:30.300Z,6424
2018-08-04T09:57:30.979Z,6384
2018-08-04T09:58:31.659Z,6360
2018-08-04T09:59:32.380Z,6332
2018-08-04T10:00:33.052Z,6308
2018-08-04T10:01:33.778Z,6284
2018-08-04T10:02:34.493Z,6268
2018-08-04T10:03:35.232Z,6196
2018-08-04T10:04:35.909Z,6188
2018-08-04T10:05:36.591Z,6172
2018-08-04T10:06:37.270Z,6172
2018-08-04T10:07:37.950Z,6164
2018-08-04T10:08:38.630Z,6152
2018-08-04T10:09:39.310Z,6176
2018-08-04T10:10:39.988Z,6228
2018-08-04T10:11:40.704Z,6284
2018-08-04T10:12:41.391Z,6312
2018-08-04T10:13:42.070Z,6372
2018-08-04T10:14:42.757Z,6312
2018-08-04T10:15:43.435Z,6280
2018-08-04T10:16:44.109Z,6248
2018-08-04T10:17:44.789Z,6228
2018-08-04T10:18:45.466Z,6248
2018-08-04T10:19:46.160Z,6236
2018-08-04T10:20:46.866Z,6216
2018-08-04T10:21:47.545Z,6172
2018-08-04T10:22:48.224Z,6136
2018-08-04T10:23:48.947Z,6116
2018-08-04T10:24:49.625Z,6088
2018-08-04T10:25:50.303Z,6064
2018-08-04T10:26:50.981Z,6056
2018-08-04T10:27:51.662Z,6096
2018-08-04T10:28:52.343Z,6164
2018-08-04T10:29:53.022Z,6196
2018-08-04T10:30:53.701Z,6040
2018-08-04T10:31:54.429Z,6260
2018-08-04T10:32:55.057Z,6324
2018-08-04T10:33:55.734Z,6256
2018-08-04T10:34:56.411Z,6328
2018-08-04T10:35:57.158Z,6428
2018-08-04T10:36:57.767Z,6468
2018-08-04T10:37:58.446Z,6524
2018-08-04T10:38:59.123Z,6552
2018-08-04T10:39:59.802Z,6564
2018-08-04T10:41:00.481Z,6564
2018-08-04T10:42:01.161Z,6596
2018-08-04T10:43:01.844Z,6612
2018-08-04T10:44:02.542Z,6616
2018-08-04T10:45:03.201Z,6692
2018-08-04T10:46:03.878Z,6668
2018-08-04T10:47:04.555Z,6844
2018-08-04T10:48:05.236Z,6508
2018-08-04T10:49:05.912Z,6460
2018-08-04T10:50:06.590Z,6304
2018-08-04T10:51:07.268Z,7500
2018-08-04T10:52:07.947Z,7504
2018-08-04T10:53:08.628Z,8100
2018-08-04T10:54:09.304Z,8156
2018-08-04T10:55:09.986Z,8036
2018-08-04T10:56:10.710Z,7452
2018-08-04T10:57:11.434Z,6768
2018-08-04T10:58:12.163Z,7428
2018-08-04T10:59:12.843Z,7396
2018-08-04T11:00:13.522Z,7812
2018-08-04T11:01:14.199Z,7500
2018-08-04T11:02:14.877Z,7876
2018-08-04T11:03:15.556Z,8252
2018-08-04T11:04:16.234Z,7840
2018-08-04T11:05:16.912Z,7600
2018-08-04T11:06:17.591Z,7652
2018-08-04T11:07:18.273Z,8400
2018-08-04T11:08:18.948Z,8756
2018-08-04T11:09:19.625Z,8772
2018-08-04T11:10:20.303Z,8716
2018-08-04T11:11:20.982Z,8620
2018-08-04T11:12:21.662Z,8304
2018-08-04T11:13:22.387Z,7860
2018-08-04T11:14:23.117Z,8028
2018-08-04T11:15:23.835Z,7852
2018-08-04T11:16:24.521Z,7924
2018-08-04T11:17:25.238Z,7636
2018-08-04T11:18:25.916Z,8140
2018-08-04T11:19:26.599Z,8540
2018-08-04T11:20:27.277Z,8672
2018-08-04T11:21:28.025Z,8516
2018-08-04T11:22:28.736Z,7800
2018-08-04T11:23:29.441Z,7784
2018-08-04T11:24:30.124Z,8108
2018-08-04T11:25:30.799Z,8484
2018-08-04T11:26:31.481Z,8276
2018-08-04T11:27:32.160Z,8276
2018-08-04T11:28:32.879Z,8560
2018-08-04T11:29:33.573Z,8672
2018-08-04T11:30:34.243Z,8420
2018-08-04T11:31:34.919Z,7972
2018-08-04T11:32:35.599Z,7860
2018-08-04T11:33:36.276Z,7328
2018-08-04T11:34:36.959Z,7392
2018-08-04T11:35:37.637Z,6616
2018-08-04T11:36:38.315Z,6072
2018-08-04T11:37:39.100Z,7252
2018-08-04T11:38:39.723Z,7396
2018-08-04T11:39:40.436Z,7356
2018-08-04T11:40:41.123Z,7124
2018-08-04T11:41:41.800Z,6576
2018-08-04T11:42:42.524Z,6456
2018-08-04T11:43:43.203Z,6568
2018-08-04T11:44:43.884Z,6744
2018-08-04T11:45:44.569Z,6804
2018-08-04T11:46:45.298Z,7272
2018-08-04T11:47:46.006Z,7684
2018-08-04T11:48:46.685Z,8208
2018-08-04T11:49:47.409Z,8676
2018-08-04T11:50:48.093Z,9160
2018-08-04T11:51:48.766Z,9312
2018-08-04T11:52:49.443Z,9376
2018-08-04T11:53:50.121Z,9260
2018-08-04T11:54:50.801Z,8932
2018-08-04T11:55:51.478Z,9016
2018-08-04T11:56:52.156Z,9088
2018-08-04T11:57:52.878Z,9120
2018-08-04T11:58:53.557Z,8900
2018-08-04T11:59:54.234Z,8780
2018-08-04T12:00:54.918Z,8340
2018-08-04T12:01:55.687Z,8208
2018-08-04T12:02:56.311Z,6556
2018-08-04T12:03:56.994Z,5992
2018-08-04T12:04:57.671Z,5516
2018-08-04T12:05:58.396Z,5192
2018-08-04T12:06:59.118Z,4968
2018-08-04T12:07:59.796Z,4784
2018-08-04T12:09:00.485Z,4568
2018-08-04T12:10:01.168Z,4288
2018-08-04T12:11:01.892Z,4176
2018-08-04T12:12:02.556Z,4196
2018-08-04T12:13:03.236Z,4300
2018-08-04T12:14:03.914Z,4572
2018-08-04T12:15:04.642Z,5100
2018-08-04T12:16:05.322Z,5628
2018-08-04T12:17:06.033Z,6056
2018-08-04T12:18:06.781Z,6404
2018-08-04T12:19:07.401Z,7008
2018-08-04T12:20:08.082Z,8404
2018-08-04T12:21:08.808Z,8544
2018-08-04T12:22:09.528Z,8800
2018-08-04T12:23:10.250Z,8252
2018-08-04T12:24:10.927Z,8520
2018-08-04T12:25:11.606Z,9504
2018-08-04T12:26:12.289Z,9324
2018-08-04T12:27:13.008Z,9080
2018-08-04T12:28:13.687Z,8272
2018-08-04T12:29:14.409Z,7876
2018-08-04T12:30:15.044Z,7564
2018-08-04T12:31:15.722Z,7524
2018-08-04T12:32:16.401Z,7816
2018-08-04T12:33:17.078Z,9092
2018-08-04T12:34:17.757Z,8316
2018-08-04T12:35:18.437Z,9004
2018-08-04T12:36:19.115Z,9364
2018-08-04T12:37:19.794Z,8808
2018-08-04T12:38:20.475Z,8456
2018-08-04T12:39:21.152Z,8144
2018-08-04T12:40:21.835Z,7952
2018-08-04T12:41:22.513Z,7884
2018-08-04T12:42:23.192Z,7820
2018-08-04T12:43:23.870Z,7728
2018-08-04T12:44:24.548Z,7360
2018-08-04T12:45:25.258Z,7236
2018-08-04T12:46:25.939Z,7196
2018-08-04T12:47:26.619Z,7140
2018-08-04T12:48:27.296Z,7060
2018-08-04T12:49:27.974Z,6948
2018-08-04T12:50:28.655Z,6828
2018-08-04T12:51:29.342Z,6700
2018-08-04T12:52:30.053Z,6612
2018-08-04T12:53:30.733Z,6516
2018-08-04T12:54:31.483Z,6396
2018-08-04T12:55:32.125Z,6256
2018-08-04T12:56:32.804Z,6180
2018-08-04T12:57:33.527Z,6160
2018-08-04T12:58:34.220Z,6132
2018-08-04T12:59:34.912Z,6016
2018-08-04T13:00:35.599Z,5732
2018-08-04T13:01:36.278Z,5480
2018-08-04T13:02:36.983Z,5368
2018-08-04T13:03:37.673Z,5280
2018-08-04T13:04:38.352Z,5312
2018-08-04T13:05:39.030Z,5552
2018-08-04T13:06:39.753Z,5856
2018-08-04T13:07:40.432Z,6056
2018-08-04T13:08:41.217Z,6424
2018-08-04T13:09:41.868Z,6800
2018-08-04T13:10:42.546Z,7308
2018-08-04T13:11:43.222Z,8304
2018-08-04T13:12:43.931Z,9228
2018-08-04T13:13:44.624Z,9572
2018-08-04T13:14:45.299Z,9264
2018-08-04T13:15:45.978Z,10492
2018-08-04T13:16:46.680Z,10600
2018-08-04T13:17:47.380Z,10348
2018-08-04T13:18:48.059Z,10188
2018-08-04T13:19:48.739Z,9768
2018-08-04T13:20:49.419Z,9224
2018-08-04T13:21:50.100Z,8812
2018-08-04T13:22:50.797Z,8368
2018-08-04T13:23:51.498Z,8004
2018-08-04T13:24:52.209Z,7688
2018-08-04T13:25:52.901Z,7408
2018-08-04T13:26:53.624Z,7172
2018-08-04T13:27:54.347Z,7020
2018-08-04T13:28:55.069Z,6920
2018-08-04T13:29:55.747Z,6804
2018-08-04T13:30:56.426Z,6716
2018-08-04T13:31:57.105Z,6576
2018-08-04T13:32:57.814Z,6448
2018-08-04T13:33:58.504Z,6348
2018-08-04T13:34:59.182Z,6260
2018-08-04T13:35:59.859Z,6188
2018-08-04T13:37:00.591Z,6052
2018-08-04T13:38:01.218Z,4172
2018-08-04T13:39:01.899Z,4120
2018-08-04T13:40:02.580Z,4168
2018-08-04T13:41:03.258Z,4436
2018-08-04T13:42:03.936Z,4660
2018-08-04T13:43:04.660Z,4756
2018-08-04T13:44:05.330Z,4820
2018-08-04T13:45:06.008Z,4952
2018-08-04T13:46:06.688Z,5144
2018-08-04T13:47:07.366Z,5256
2018-08-04T13:48:08.048Z,5304
2018-08-04T13:49:08.723Z,5240
2018-08-04T13:50:09.406Z,4972
2018-08-04T13:51:10.075Z,4744
2018-08-04T13:52:10.753Z,4596
2018-08-04T13:53:11.433Z,4580
2018-08-04T13:54:12.112Z,4728
2018-08-04T13:55:12.791Z,5220
2018-08-04T13:56:13.469Z,5900
2018-08-04T13:57:14.148Z,6980
2018-08-04T13:58:14.826Z,7012
2018-08-04T13:59:15.539Z,6152
2018-08-04T14:00:16.230Z,5340
2018-08-04T14:01:16.910Z,4856